createdAt,value
2023-03-03T00:04:58.094Z,66.10
2023-03-03T00:10:05.792Z,66.60
2023-03-03T00:15:20.046Z,61.90
2023-03-03T00:20:35.919Z,66.20
2023-03-03T00:25:45.311Z,59.30
2023-03-03T00:30:54.643Z,59.50
2023-03-03T00:36:12.780Z,49.40
2023-03-03T00:41:24.418Z,59.00
2023-03-03T00:46:33.960Z,62.50
2023-03-03T00:51:45.502Z,60.80
2023-03-03T00:56:52.894Z,73.50
2023-03-03T01:02:01.008Z,49.30
2023-03-03T01:07:08.727Z,64.70
2023-03-03T01:12:17.268Z,76.70
2023-03-03T01:17:25.285Z,73.40
2023-03-03T01:22:32.941Z,101.20
2023-03-03T01:27:40.632Z,79.50
2023-03-03T01:32:48.202Z,73.20
2023-03-03T01:37:55.751Z,82.10
2023-03-03T01:43:04.553Z,81.20
2023-03-03T01:48:16.051Z,82.20
2023-03-03T01:53:30.209Z,72.20
2023-03-03T01:58:41.706Z,74.70
2023-03-03T02:03:50.042Z,80.50
2023-03-03T02:09:05.377Z,86.20
2023-03-03T02:14:14.493Z,70.50
2023-03-03T02:19:29.248Z,74.30
2023-03-03T02:24:40.958Z,62.40
2023-03-03T02:29:48.394Z,77.50
2023-03-03T02:34:55.932Z,81.20
2023-03-03T02:40:04.335Z,91.00
2023-03-03T02:45:13.057Z,79.20
2023-03-03T02:50:20.600Z,76.00
2023-03-03T02:55:28.714Z,74.30
2023-03-03T03:00:36.134Z,74.60
2023-03-03T03:05:44.072Z,68.30
2023-03-03T03:10:51.885Z,72.80
2023-03-03T03:15:59.725Z,81.10
2023-03-03T03:21:15.083Z,71.20
2023-03-03T03:29:01.491Z,82.00
2023-03-03T03:34:05.655Z,76.70
2023-03-03T03:42:35.418Z,79.70
2023-03-03T03:47:42.804Z,63.90
2023-03-03T03:52:50.731Z,67.70
2023-03-03T03:57:59.320Z,72.30
2023-03-03T04:03:07.000Z,75.40
2023-03-03T04:08:15.099Z,77.90
2023-03-03T04:13:23.577Z,73.30
2023-03-03T04:18:31.053Z,79.10
2023-03-03T04:23:38.513Z,59.50
2023-03-03T04:28:46.140Z,69.40
2023-03-03T04:33:53.936Z,41.90
2023-03-03T04:39:01.574Z,64.40
2023-03-03T04:44:09.700Z,69.10
2023-03-03T04:49:17.462Z,82.40
2023-03-03T04:54:25.684Z,71.10
2023-03-03T04:59:36.028Z,71.40
2023-03-03T05:04:43.870Z,62.40
2023-03-03T05:09:51.680Z,60.60
2023-03-03T05:14:59.539Z,65.90
2023-03-03T05:20:10.510Z,72.30
2023-03-03T05:25:18.492Z,77.80
2023-03-03T05:30:25.851Z,65.50
2023-03-03T05:35:34.601Z,66.40
2023-03-03T05:40:44.218Z,68.30
2023-03-03T05:45:58.058Z,68.70
2023-03-03T05:51:05.810Z,53.70
2023-03-03T05:56:13.307Z,43.30
2023-03-03T06:01:21.241Z,52.50
2023-03-03T06:06:29.461Z,91.90
2023-03-03T06:11:37.891Z,73.90
2023-03-03T06:19:30.357Z,79.30
2023-03-03T06:24:37.955Z,67.70
2023-03-03T06:29:45.055Z,59.00
2023-03-03T06:34:52.334Z,79.80
2023-03-03T06:39:59.876Z,70.60
2023-03-03T06:45:08.738Z,90.20
2023-03-03T06:50:20.012Z,124.90
2023-03-03T06:55:27.934Z,93.30
2023-03-03T07:00:36.258Z,70.20
2023-03-03T07:05:44.221Z,87.30
2023-03-03T07:10:53.784Z,81.40
2023-03-03T07:16:11.317Z,67.60
2023-03-03T07:21:24.017Z,102.70
2023-03-03T07:26:34.384Z,55.00
2023-03-03T07:31:45.652Z,62.80
2023-03-03T07:36:55.662Z,103.30
2023-03-03T07:42:16.176Z,121.00
2023-03-03T07:47:27.836Z,126.20
2023-03-03T07:52:43.573Z,94.80
2023-03-03T07:57:56.239Z,75.70
2023-03-03T08:03:07.318Z,94.10
2023-03-03T08:08:32.112Z,102.90
2023-03-03T08:13:43.605Z,83.60
2023-03-03T08:18:53.815Z,60.70
2023-03-03T08:24:01.818Z,100.00
2023-03-03T08:29:09.217Z,100.70
2023-03-03T08:34:16.558Z,71.20
2023-03-03T08:39:24.458Z,79.00
2023-03-03T08:44:32.286Z,71.10
2023-03-03T08:49:40.408Z,75.10
2023-03-03T08:54:47.850Z,57.20
2023-03-03T09:08:16.508Z,95.10
2023-03-03T09:13:24.736Z,87.70
2023-03-03T09:18:38.115Z,69.10
2023-03-03T09:23:50.210Z,66.50
2023-03-03T09:29:00.538Z,77.00
2023-03-03T09:34:21.086Z,101.30
2023-03-03T09:39:31.942Z,79.30
2023-03-03T09:45:04.663Z,77.00
2023-03-03T09:50:21.467Z,90.60
2023-03-03T09:55:42.470Z,85.40
2023-03-03T10:00:58.953Z,93.20
2023-03-03T10:06:20.678Z,73.50
2023-03-03T10:11:37.674Z,65.20
2023-03-03T10:17:07.559Z,97.80
2023-03-03T10:22:26.161Z,111.20
2023-03-03T10:27:49.439Z,69.10
2023-03-03T10:33:03.598Z,82.40
2023-03-03T10:38:34.575Z,84.70
2023-03-03T10:44:27.443Z,82.60
2023-03-03T10:49:51.491Z,61.80
2023-03-03T10:55:19.055Z,74.00
2023-03-03T11:00:31.734Z,106.90
2023-03-03T11:05:42.484Z,96.60
2023-03-03T11:11:00.740Z,99.90
2023-03-03T11:16:23.492Z,55.30
2023-03-03T11:21:36.999Z,51.20
2023-03-03T11:27:07.806Z,52.50
2023-03-03T11:32:27.856Z,70.00
2023-03-03T11:37:43.646Z,68.40
2023-03-03T11:43:02.431Z,63.70
2023-03-03T11:48:18.414Z,48.50
2023-03-03T11:53:42.038Z,52.30
2023-03-03T11:58:57.124Z,140.20
2023-03-03T12:04:09.239Z,48.60
2023-03-03T12:09:40.569Z,42.40
2023-03-03T12:15:06.164Z,60.60
2023-03-03T12:20:19.959Z,52.60
2023-03-03T12:25:36.093Z,45.60
2023-03-03T12:31:02.329Z,55.80
2023-03-03T12:36:23.715Z,44.30
2023-03-03T12:41:38.456Z,38.50
2023-03-03T12:46:55.173Z,104.80
2023-03-03T12:52:17.337Z,46.00
2023-03-03T12:57:32.645Z,44.90
2023-03-03T13:02:48.870Z,34.00
2023-03-03T13:08:06.646Z,124.70
2023-03-03T13:13:18.332Z,44.90
2023-03-03T13:18:40.078Z,37.30
2023-03-03T13:23:56.638Z,24.90
2023-03-03T13:29:15.778Z,42.20
2023-03-03T13:34:35.832Z,115.00
2023-03-03T13:39:53.888Z,47.40
2023-03-03T13:45:03.305Z,35.80
2023-03-03T13:50:26.017Z,40.10
2023-03-03T13:55:41.083Z,29.80
2023-03-03T14:01:03.755Z,33.40
2023-03-03T14:06:18.723Z,36.70
2023-03-03T14:11:35.927Z,34.40
2023-03-03T14:16:53.997Z,32.00
2023-03-03T14:22:12.868Z,31.40
2023-03-03T14:27:27.937Z,34.50
2023-03-03T14:32:45.444Z,32.40
2023-03-03T14:37:53.837Z,32.20
2023-03-03T14:43:03.958Z,25.30
2023-03-03T14:48:19.688Z,29.80
2023-03-03T14:53:38.552Z,36.20
2023-03-03T14:58:46.749Z,35.10
2023-03-03T15:04:02.677Z,38.70
2023-03-03T15:09:37.104Z,36.30
2023-03-03T15:14:48.916Z,66.50
2023-03-03T15:20:18.076Z,37.40
2023-03-03T15:25:43.504Z,34.70
2023-03-03T15:30:57.870Z,39.80
2023-03-03T15:36:16.794Z,40.70
2023-03-03T15:41:45.213Z,36.50
2023-03-03T15:47:16.338Z,29.90
2023-03-03T15:52:36.441Z,28.80
2023-03-03T15:57:56.470Z,37.80
2023-03-03T16:03:10.276Z,35.10
2023-03-03T16:08:23.668Z,27.80
2023-03-03T16:13:50.553Z,39.70
2023-03-03T16:19:13.102Z,37.40
2023-03-03T16:24:33.792Z,24.00
2023-03-03T16:29:53.110Z,36.60
2023-03-03T16:35:13.509Z,53.20
2023-03-03T16:40:26.224Z,34.90
2023-03-03T16:45:38.614Z,34.80
2023-03-03T16:51:01.848Z,34.50
2023-03-03T16:56:16.083Z,46.40
2023-03-03T17:01:37.319Z,39.20
2023-03-03T17:06:51.874Z,64.50
2023-03-03T17:12:10.648Z,40.10
2023-03-03T17:17:31.819Z,31.70
2023-03-03T17:22:52.500Z,31.30
2023-03-03T17:28:13.743Z,40.30
2023-03-03T17:33:38.253Z,22.20
2023-03-03T17:39:00.278Z,72.60
2023-03-03T17:44:15.508Z,39.20
2023-03-03T17:50:10.069Z,45.80
2023-03-03T17:55:31.467Z,49.40
2023-03-03T18:00:51.296Z,39.80
2023-03-03T18:06:16.678Z,35.90
2023-03-03T18:11:35.656Z,44.00
2023-03-03T18:17:04.130Z,37.20
2023-03-03T18:28:24.552Z,34.50
2023-03-03T18:33:59.701Z,27.60
2023-03-03T18:39:15.229Z,39.40
2023-03-03T18:44:32.538Z,37.50
2023-03-03T18:49:56.541Z,32.90
2023-03-03T18:55:28.386Z,33.80
2023-03-03T19:00:46.817Z,46.50
2023-03-03T19:05:58.304Z,33.10
2023-03-03T19:11:06.889Z,33.50
2023-03-03T19:16:30.785Z,32.20
2023-03-03T19:21:39.998Z,28.00
2023-03-03T19:27:03.796Z,39.70
2023-03-03T19:32:32.168Z,34.60
2023-03-03T19:37:50.413Z,28.60
2023-03-03T19:43:11.459Z,19.30
2023-03-03T19:48:29.445Z,31.00
2023-03-03T19:53:46.813Z,31.10
2023-03-03T19:59:08.421Z,28.00
2023-03-03T20:04:43.590Z,26.40
2023-03-03T20:14:01.865Z,36.00
2023-03-03T20:19:26.687Z,26.30
2023-03-03T20:24:59.137Z,27.80
2023-03-03T20:30:25.502Z,33.60
2023-03-03T20:35:44.729Z,28.80
2023-03-03T20:40:59.174Z,38.40
2023-03-03T20:46:14.959Z,25.50
2023-03-03T20:51:31.438Z,26.90
2023-03-03T20:56:45.166Z,31.90
2023-03-03T21:01:59.400Z,32.50
2023-03-03T21:07:08.116Z,35.70
2023-03-03T21:12:32.441Z,26.50
2023-03-03T21:17:40.190Z,38.00
2023-03-03T21:22:47.846Z,40.10
2023-03-03T21:28:13.961Z,40.30
2023-03-03T21:33:55.005Z,36.30
2023-03-03T21:39:03.118Z,38.00
2023-03-03T21:44:37.351Z,38.90
2023-03-03T21:49:46.546Z,23.10
2023-03-03T21:54:54.806Z,39.90
2023-03-03T22:00:02.418Z,56.80
2023-03-03T22:05:11.016Z,43.00
2023-03-03T22:10:18.939Z,54.40
2023-03-03T22:15:28.938Z,49.20
2023-03-03T22:20:37.257Z,41.00
2023-03-03T22:25:45.202Z,30.60
2023-03-03T22:30:53.430Z,32.00
2023-03-03T22:36:01.281Z,47.40
2023-03-03T22:41:09.723Z,51.50
2023-03-03T22:46:17.240Z,59.10
2023-03-03T22:51:26.381Z,54.30
2023-03-03T22:56:34.084Z,37.60
2023-03-03T23:01:42.350Z,44.10
2023-03-03T23:06:50.521Z,48.50
2023-03-03T23:11:58.066Z,39.10
2023-03-03T23:17:05.500Z,42.60
2023-03-03T23:22:12.775Z,58.10
2023-03-03T23:32:27.015Z,52.80
2023-03-03T23:37:34.678Z,48.70
2023-03-03T23:47:47.866Z,51.10
2023-03-03T23:58:01.120Z,39.90
